Startpagina
METAR-TAF:

METAR-TAF

Vliegvelden :

Productieplatform

L9-ff-1, Nederland

breedte: 53-36-52N, lengte: 4-57-37E, hoogte: 30 m

Actueel weer

Dit bericht is 11 minuten geleden gemaakt, om 05:55 UTC
Wind 15 kt uit variabele richting
Temperatuur 4°C
Vochtigheid 65%
Druk 1027 hPa
Zicht 10 km of meer
Geheel bewolkt op 3000 ft

METAR: EHMG 070555Z AUTO VRB15KT 9999 OVC030 04/M02 Q1027

Tijdstip: 07:06 (06:06 UTC)


TAF: ontbreekt

Waarnemingen en weersverwachtingen van meer dan 4000 vliegvelden (METAR en TAF).

De beschikbare stations zijn de gele en rode punten op de kaart.

Ga met uw muis naar het station om de naam te zien.

Klik dan om waarnemingen en weersverwachtingen te zien.

kaart wijzigen: klik op de groene knoppen met een zwart kruis om in te zoomen, op de groene knop met een streepje om uit te zoomen of op de groene pijlen voor aangrenzende kaarten.


METAR-TAF: